sensor_id;sensor_type;location;lat;lon;timestamp;temperature;humidity
30150;DHT22;16962;48.646;9.026;2023-05-02T00:01:39;7.70;99.90
30150;DHT22;16962;48.646;9.026;2023-05-02T00:04:27;7.60;99.90
30150;DHT22;16962;48.646;9.026;2023-05-02T00:07:16;7.60;99.90
30150;DHT22;16962;48.646;9.026;2023-05-02T00:10:03;7.60;99.90
30150;DHT22;16962;48.646;9.026;2023-05-02T00:12:52;7.60;99.90
30150;DHT22;16962;48.646;9.026;2023-05-02T00:15:40;7.60;99.90
30150;DHT22;16962;48.646;9.026;2023-05-02T00:18:27;7.50;99.90
30150;DHT22;16962;48.646;9.026;2023-05-02T00:21:16;7.40;99.90
30150;DHT22;16962;48.646;9.026;2023-05-02T00:24:04;7.40;99.90
30150;DHT22;16962;48.646;9.026;2023-05-02T00:26:51;7.30;99.90
30150;DHT22;16962;48.646;9.026;2023-05-02T00:29:38;7.40;99.90
30150;DHT22;16962;48.646;9.026;2023-05-02T00:32:29;7.40;99.90
30150;DHT22;16962;48.646;9.026;2023-05-02T00:35:16;7.50;99.90
30150;DHT22;16962;48.646;9.026;2023-05-02T00:38:03;7.50;99.90
30150;DHT22;16962;48.646;9.026;2023-05-02T00:40:51;7.50;99.90
30150;DHT22;16962;48.646;9.026;2023-05-02T00:43:39;7.50;99.90
30150;DHT22;16962;48.646;9.026;2023-05-02T00:46:27;7.50;99.90
30150;DHT22;16962;48.646;9.026;2023-05-02T00:49:14;7.50;99.90
30150;DHT22;16962;48.646;9.026;2023-05-02T00:52:01;7.50;99.90
30150;DHT22;16962;48.646;9.026;2023-05-02T00:54:48;7.50;99.90
30150;DHT22;16962;48.646;9.026;2023-05-02T00:57:38;7.50;99.90
30150;DHT22;16962;48.646;9.026;2023-05-02T01:00:34;7.40;99.90
30150;DHT22;16962;48.646;9.026;2023-05-02T01:03:30;7.40;99.90
30150;DHT22;16962;48.646;9.026;2023-05-02T01:06:45;7.30;99.90
30150;DHT22;16962;48.646;9.026;2023-05-02T01:12:57;7.20;99.90
30150;DHT22;16962;48.646;9.026;2023-05-02T01:15:46;7.20;99.90
30150;DHT22;16962;48.646;9.026;2023-05-02T01:18:37;7.20;99.90
30150;DHT22;16962;48.646;9.026;2023-05-02T01:21:27;7.30;99.90
30150;DHT22;16962;48.646;9.026;2023-05-02T01:30:36;7.40;99.90
30150;DHT22;16962;48.646;9.026;2023-05-02T01:33:27;7.50;99.90
30150;DHT22;16962;48.646;9.026;2023-05-02T01:36:16;7.50;99.90
30150;DHT22;16962;48.646;9.026;2023-05-02T01:39:06;7.40;99.90
30150;DHT22;16962;48.646;9.026;2023-05-02T01:41:55;7.40;99.90
30150;DHT22;16962;48.646;9.026;2023-05-02T01:44:45;7.30;99.90
30150;DHT22;16962;48.646;9.026;2023-05-02T01:47:35;7.30;99.90
30150;DHT22;16962;48.646;9.026;2023-05-02T01:50:23;7.30;99.90
30150;DHT22;16962;48.646;9.026;2023-05-02T01:53:13;7.30;99.90
30150;DHT22;16962;48.646;9.026;2023-05-02T01:56:04;7.30;99.90
30150;DHT22;16962;48.646;9.026;2023-05-02T01:58:53;7.20;99.90
30150;DHT22;16962;48.646;9.026;2023-05-02T02:01:42;7.20;99.90
30150;DHT22;16962;48.646;9.026;2023-05-02T02:04:31;7.20;99.90
30150;DHT22;16962;48.646;9.026;2023-05-02T02:07:21;7.20;99.90
30150;DHT22;16962;48.646;9.026;2023-05-02T02:10:08;7.10;99.90
30150;DHT22;16962;48.646;9.026;2023-05-02T02:13:04;7.10;99.90
30150;DHT22;16962;48.646;9.026;2023-05-02T02:15:59;7.10;99.90
30150;DHT22;16962;48.646;9.026;2023-05-02T02:18:50;7.10;99.90
30150;DHT22;16962;48.646;9.026;2023-05-02T02:21:45;7.10;99.90
30150;DHT22;16962;48.646;9.026;2023-05-02T02:24:35;7.20;99.90
30150;DHT22;16962;48.646;9.026;2023-05-02T02:27:31;7.20;99.90
30150;DHT22;16962;48.646;9.026;2023-05-02T02:30:18;7.10;99.90
30150;DHT22;16962;48.646;9.026;2023-05-02T02:33:05;7.10;99.90
30150;DHT22;16962;48.646;9.026;2023-05-02T02:42:15;6.90;99.90
30150;DHT22;16962;48.646;9.026;2023-05-02T02:45:20;6.90;99.90
30150;DHT22;16962;48.646;9.026;2023-05-02T02:48:18;6.80;99.90
30150;DHT22;16962;48.646;9.026;2023-05-02T02:51:18;6.80;99.90
30150;DHT22;16962;48.646;9.026;2023-05-02T02:54:37;6.80;99.90
30150;DHT22;16962;48.646;9.026;2023-05-02T02:57:47;6.70;99.90
30150;DHT22;16962;48.646;9.026;2023-05-02T03:00:35;6.60;99.90
30150;DHT22;16962;48.646;9.026;2023-05-02T03:03:23;6.50;99.90
30150;DHT22;16962;48.646;9.026;2023-05-02T03:06:18;6.30;99.90
30150;DHT22;16962;48.646;9.026;2023-05-02T03:09:13;6.30;99.90
30150;DHT22;16962;48.646;9.026;2023-05-02T03:12:00;6.20;99.90
30150;DHT22;16962;48.646;9.026;2023-05-02T03:14:48;6.20;99.90
30150;DHT22;16962;48.646;9.026;2023-05-02T03:17:35;6.20;99.90
30150;DHT22;16962;48.646;9.026;2023-05-02T03:20:22;6.20;99.90
30150;DHT22;16962;48.646;9.026;2023-05-02T03:23:11;6.20;99.90
30150;DHT22;16962;48.646;9.026;2023-05-02T03:26:01;6.30;99.90
30150;DHT22;16962;48.646;9.026;2023-05-02T03:28:51;6.40;99.90
30150;DHT22;16962;48.646;9.026;2023-05-02T03:31:40;6.70;99.90
30150;DHT22;16962;48.646;9.026;2023-05-02T03:34:27;6.80;99.90
30150;DHT22;16962;48.646;9.026;2023-05-02T03:37:15;6.90;99.90
30150;DHT22;16962;48.646;9.026;2023-05-02T03:40:02;6.90;99.90
30150;DHT22;16962;48.646;9.026;2023-05-02T03:42:49;6.80;99.90
30150;DHT22;16962;48.646;9.026;2023-05-02T03:45:39;6.80;99.90
30150;DHT22;16962;48.646;9.026;2023-05-02T03:48:26;6.80;99.90
30150;DHT22;16962;48.646;9.026;2023-05-02T03:51:13;6.90;99.90
30150;DHT22;16962;48.646;9.026;2023-05-02T03:54:01;6.90;99.90
30150;DHT22;16962;48.646;9.026;2023-05-02T03:56:48;7.00;99.90
30150;DHT22;16962;48.646;9.026;2023-05-02T03:59:35;7.00;99.90
30150;DHT22;16962;48.646;9.026;2023-05-02T04:02:25;7.10;99.90
30150;DHT22;16962;48.646;9.026;2023-05-02T04:05:15;7.10;99.90
30150;DHT22;16962;48.646;9.026;2023-05-02T04:08:03;7.20;99.90
30150;DHT22;16962;48.646;9.026;2023-05-02T04:10:50;7.20;99.90
30150;DHT22;16962;48.646;9.026;2023-05-02T04:13:38;7.20;99.90
30150;DHT22;16962;48.646;9.026;2023-05-02T04:16:26;7.20;99.90
30150;DHT22;16962;48.646;9.026;2023-05-02T04:19:13;7.30;99.90
30150;DHT22;16962;48.646;9.026;2023-05-02T04:22:01;7.40;99.90
30150;DHT22;16962;48.646;9.026;2023-05-02T04:24:49;7.40;99.90
30150;DHT22;16962;48.646;9.026;2023-05-02T04:27:36;7.40;99.90
30150;DHT22;16962;48.646;9.026;2023-05-02T04:30:24;7.40;99.90
30150;DHT22;16962;48.646;9.026;2023-05-02T04:33:14;7.40;99.90
30150;DHT22;16962;48.646;9.026;2023-05-02T04:36:03;7.50;99.90
30150;DHT22;16962;48.646;9.026;2023-05-02T04:38:50;7.50;99.90
30150;DHT22;16962;48.646;9.026;2023-05-02T04:41:38;7.50;99.90
30150;DHT22;16962;48.646;9.026;2023-05-02T04:44:25;7.40;99.90
30150;DHT22;16962;48.646;9.026;2023-05-02T04:47:15;7.40;99.90
30150;DHT22;16962;48.646;9.026;2023-05-02T04:50:05;7.40;99.90
30150;DHT22;16962;48.646;9.026;2023-05-02T04:52:55;7.40;99.90
30150;DHT22;16962;48.646;9.026;2023-05-02T04:55:42;7.40;99.90
30150;DHT22;16962;48.646;9.026;2023-05-02T04:58:31;7.40;99.90
30150;DHT22;16962;48.646;9.026;2023-05-02T05:01:19;7.40;99.90
30150;DHT22;16962;48.646;9.026;2023-05-02T05:04:06;7.50;99.90
30150;DHT22;16962;48.646;9.026;2023-05-02T05:06:54;7.60;99.90
30150;DHT22;16962;48.646;9.026;2023-05-02T05:09:41;7.60;99.90
30150;DHT22;16962;48.646;9.026;2023-05-02T05:12:28;7.70;99.90
30150;DHT22;16962;48.646;9.026;2023-05-02T05:15:19;7.80;99.90
30150;DHT22;16962;48.646;9.026;2023-05-02T05:18:11;8.00;99.90
30150;DHT22;16962;48.646;9.026;2023-05-02T05:20:58;8.00;99.90
30150;DHT22;16962;48.646;9.026;2023-05-02T05:23:45;8.00;99.90
30150;DHT22;16962;48.646;9.026;2023-05-02T05:26:35;8.10;99.90
30150;DHT22;16962;48.646;9.026;2023-05-02T05:29:24;8.10;99.90
30150;DHT22;16962;48.646;9.026;2023-05-02T05:32:14;8.10;99.90
30150;DHT22;16962;48.646;9.026;2023-05-02T05:35:01;8.10;99.90
30150;DHT22;16962;48.646;9.026;2023-05-02T05:37:50;8.20;99.90
30150;DHT22;16962;48.646;9.026;2023-05-02T05:40:37;8.30;99.90
30150;DHT22;16962;48.646;9.026;2023-05-02T05:43:27;8.40;99.90
30150;DHT22;16962;48.646;9.026;2023-05-02T05:46:14;8.40;99.90
30150;DHT22;16962;48.646;9.026;2023-05-02T05:49:01;8.50;99.90
30150;DHT22;16962;48.646;9.026;2023-05-02T05:51:48;8.60;99.90
30150;DHT22;16962;48.646;9.026;2023-05-02T05:54:38;8.70;99.90
30150;DHT22;16962;48.646;9.026;2023-05-02T05:57:25;8.70;99.90
30150;DHT22;16962;48.646;9.026;2023-05-02T06:00:13;8.70;99.90
30150;DHT22;16962;48.646;9.026;2023-05-02T06:03:00;8.70;99.90
30150;DHT22;16962;48.646;9.026;2023-05-02T06:05:48;8.70;99.90
30150;DHT22;16962;48.646;9.026;2023-05-02T06:08:37;8.70;99.90
30150;DHT22;16962;48.646;9.026;2023-05-02T06:11:25;8.70;99.90
30150;DHT22;16962;48.646;9.026;2023-05-02T06:14:12;8.80;99.90
30150;DHT22;16962;48.646;9.026;2023-05-02T06:16:59;8.90;99.90
30150;DHT22;16962;48.646;9.026;2023-05-02T06:19:47;9.00;99.90
30150;DHT22;16962;48.646;9.026;2023-05-02T06:22:35;9.20;99.90
30150;DHT22;16962;48.646;9.026;2023-05-02T06:25:22;9.30;99.90
30150;DHT22;16962;48.646;9.026;2023-05-02T06:28:09;9.20;99.90
30150;DHT22;16962;48.646;9.026;2023-05-02T06:31:15;9.30;99.90
30150;DHT22;16962;48.646;9.026;2023-05-02T06:34:03;9.30;99.90
30150;DHT22;16962;48.646;9.026;2023-05-02T06:36:54;9.30;99.90
30150;DHT22;16962;48.646;9.026;2023-05-02T06:39:43;9.40;99.90
30150;DHT22;16962;48.646;9.026;2023-05-02T06:42:31;9.40;99.90
30150;DHT22;16962;48.646;9.026;2023-05-02T06:45:18;9.50;99.90
30150;DHT22;16962;48.646;9.026;2023-05-02T06:48:07;9.50;99.90
30150;DHT22;16962;48.646;9.026;2023-05-02T06:50:57;9.60;99.90
30150;DHT22;16962;48.646;9.026;2023-05-02T06:53:46;9.60;99.90
30150;DHT22;16962;48.646;9.026;2023-05-02T06:56:34;9.70;99.90
30150;DHT22;16962;48.646;9.026;2023-05-02T06:59:24;9.70;99.90
30150;DHT22;16962;48.646;9.026;2023-05-02T07:02:14;9.80;99.90
30150;DHT22;16962;48.646;9.026;2023-05-02T07:05:01;9.80;99.90
30150;DHT22;16962;48.646;9.026;2023-05-02T07:07:49;9.90;99.90
30150;DHT22;16962;48.646;9.026;2023-05-02T07:10:36;10.00;99.90
30150;DHT22;16962;48.646;9.026;2023-05-02T07:13:23;10.20;99.90
30150;DHT22;16962;48.646;9.026;2023-05-02T07:16:13;10.30;99.90
30150;DHT22;16962;48.646;9.026;2023-05-02T07:19:03;10.40;99.90
30150;DHT22;16962;48.646;9.026;2023-05-02T07:21:54;10.50;99.90
30150;DHT22;16962;48.646;9.026;2023-05-02T07:24:44;10.60;99.90
30150;DHT22;16962;48.646;9.026;2023-05-02T07:27:32;10.60;99.90
30150;DHT22;16962;48.646;9.026;2023-05-02T07:30:19;10.80;99.90
30150;DHT22;16962;48.646;9.026;2023-05-02T07:33:06;10.90;99.90
30150;DHT22;16962;48.646;9.026;2023-05-02T07:35:54;10.80;99.90
30150;DHT22;16962;48.646;9.026;2023-05-02T07:38:42;10.80;99.90
30150;DHT22;16962;48.646;9.026;2023-05-02T07:41:30;10.80;10.30
30150;DHT22;16962;48.646;9.026;2023-05-02T07:44:17;11.00;25.80
30150;DHT22;16962;48.646;9.026;2023-05-02T07:47:07;11.20;99.90
30150;DHT22;16962;48.646;9.026;2023-05-02T07:49:55;11.40;1.00
30150;DHT22;16962;48.646;9.026;2023-05-02T07:52:42;11.40;99.90
30150;DHT22;16962;48.646;9.026;2023-05-02T07:55:29;11.60;1.00
30150;DHT22;16962;48.646;9.026;2023-05-02T07:58:19;11.80;99.90
30150;DHT22;16962;48.646;9.026;2023-05-02T08:01:06;11.90;1.00
30150;DHT22;16962;48.646;9.026;2023-05-02T08:03:54;12.30;1.00
30150;DHT22;16962;48.646;9.026;2023-05-02T08:06:45;12.60;99.90
30150;DHT22;16962;48.646;9.026;2023-05-02T08:09:32;12.80;99.90
30150;DHT22;16962;48.646;9.026;2023-05-02T08:12:22;12.90;1.00
30150;DHT22;16962;48.646;9.026;2023-05-02T08:15:11;12.80;99.90
30150;DHT22;16962;48.646;9.026;2023-05-02T08:18:00;13.00;99.90
30150;DHT22;16962;48.646;9.026;2023-05-02T08:20:48;13.20;99.90
30150;DHT22;16962;48.646;9.026;2023-05-02T08:23:40;13.30;99.90
30150;DHT22;16962;48.646;9.026;2023-05-02T08:26:27;13.40;91.70
30150;DHT22;16962;48.646;9.026;2023-05-02T08:29:14;13.30;10.80
30150;DHT22;16962;48.646;9.026;2023-05-02T08:32:02;13.40;46.70
30150;DHT22;16962;48.646;9.026;2023-05-02T08:34:49;13.60;69.90
30150;DHT22;16962;48.646;9.026;2023-05-02T08:37:40;13.80;1.00
30150;DHT22;16962;48.646;9.026;2023-05-02T08:40:34;14.00;1.00
30150;DHT22;16962;48.646;9.026;2023-05-02T08:43:30;14.30;99.90
30150;DHT22;16962;48.646;9.026;2023-05-02T08:46:18;14.60;99.90
30150;DHT22;16962;48.646;9.026;2023-05-02T08:49:10;15.00;99.90
30150;DHT22;16962;48.646;9.026;2023-05-02T08:51:59;15.60;99.90
30150;DHT22;16962;48.646;9.026;2023-05-02T08:54:48;15.70;99.90
30150;DHT22;16962;48.646;9.026;2023-05-02T08:57:37;15.70;99.90
30150;DHT22;16962;48.646;9.026;2023-05-02T09:00:26;15.30;99.90
30150;DHT22;16962;48.646;9.026;2023-05-02T09:03:28;15.30;99.90
30150;DHT22;16962;48.646;9.026;2023-05-02T09:06:18;15.50;94.80
30150;DHT22;16962;48.646;9.026;2023-05-02T09:09:06;15.70;23.40
30150;DHT22;16962;48.646;9.026;2023-05-02T09:11:54;15.90;1.00
30150;DHT22;16962;48.646;9.026;2023-05-02T09:14:44;15.70;1.00
30150;DHT22;16962;48.646;9.026;2023-05-02T09:17:42;15.90;1.00
30150;DHT22;16962;48.646;9.026;2023-05-02T09:20:39;15.80;1.00
30150;DHT22;16962;48.646;9.026;2023-05-02T09:23:43;15.90;1.00
30150;DHT22;16962;48.646;9.026;2023-05-02T09:26:30;16.30;1.00
30150;DHT22;16962;48.646;9.026;2023-05-02T09:29:21;16.70;1.00
30150;DHT22;16962;48.646;9.026;2023-05-02T09:32:08;17.10;1.00
30150;DHT22;16962;48.646;9.026;2023-05-02T09:35:14;17.10;1.00
30150;DHT22;16962;48.646;9.026;2023-05-02T09:38:18;17.40;1.00
30150;DHT22;16962;48.646;9.026;2023-05-02T09:41:07;18.10;1.00
30150;DHT22;16962;48.646;9.026;2023-05-02T09:43:55;18.80;99.90
30150;DHT22;16962;48.646;9.026;2023-05-02T09:46:48;19.40;99.90
30150;DHT22;16962;48.646;9.026;2023-05-02T09:49:42;19.00;99.90
30150;DHT22;16962;48.646;9.026;2023-05-02T09:52:31;18.50;99.90
30150;DHT22;16962;48.646;9.026;2023-05-02T09:55:24;17.50;99.90
30150;DHT22;16962;48.646;9.026;2023-05-02T09:58:22;17.20;99.90
30150;DHT22;16962;48.646;9.026;2023-05-02T10:01:16;17.20;99.90
30150;DHT22;16962;48.646;9.026;2023-05-02T10:04:04;17.50;99.90
30150;DHT22;16962;48.646;9.026;2023-05-02T10:06:52;18.10;99.90
30150;DHT22;16962;48.646;9.026;2023-05-02T10:09:43;18.50;99.90
30150;DHT22;16962;48.646;9.026;2023-05-02T10:12:31;18.30;99.90
30150;DHT22;16962;48.646;9.026;2023-05-02T10:15:22;17.70;99.90
30150;DHT22;16962;48.646;9.026;2023-05-02T10:18:20;17.20;99.90
30150;DHT22;16962;48.646;9.026;2023-05-02T10:21:10;17.80;99.90
30150;DHT22;16962;48.646;9.026;2023-05-02T10:24:00;18.80;99.90
30150;DHT22;16962;48.646;9.026;2023-05-02T10:26:49;18.80;99.90
30150;DHT22;16962;48.646;9.026;2023-05-02T10:29:41;18.10;99.90
30150;DHT22;16962;48.646;9.026;2023-05-02T10:32:29;17.50;99.90
30150;DHT22;16962;48.646;9.026;2023-05-02T10:35:22;17.50;99.90
30150;DHT22;16962;48.646;9.026;2023-05-02T10:38:13;18.60;99.90
30150;DHT22;16962;48.646;9.026;2023-05-02T10:41:11;19.80;99.90
30150;DHT22;16962;48.646;9.026;2023-05-02T10:43:59;20.70;99.90
30150;DHT22;16962;48.646;9.026;2023-05-02T10:46:58;21.50;99.90
30150;DHT22;16962;48.646;9.026;2023-05-02T10:50:00;23.30;99.90
30150;DHT22;16962;48.646;9.026;2023-05-02T10:52:50;22.10;99.90
30150;DHT22;16962;48.646;9.026;2023-05-02T10:55:37;21.70;99.90
30150;DHT22;16962;48.646;9.026;2023-05-02T10:58:30;22.90;99.90
30150;DHT22;16962;48.646;9.026;2023-05-02T11:04:15;23.90;99.80
30150;DHT22;16962;48.646;9.026;2023-05-02T11:13:06;25.20;43.80
30150;DHT22;16962;48.646;9.026;2023-05-02T11:15:54;23.60;37.00
30150;DHT22;16962;48.646;9.026;2023-05-02T11:18:57;23.30;34.40
30150;DHT22;16962;48.646;9.026;2023-05-02T11:21:50;24.10;28.60
30150;DHT22;16962;48.646;9.026;2023-05-02T11:24:42;24.10;22.00
30150;DHT22;16962;48.646;9.026;2023-05-02T11:30:39;23.90;22.80
30150;DHT22;16962;48.646;9.026;2023-05-02T11:33:30;23.10;17.60
30150;DHT22;16962;48.646;9.026;2023-05-02T11:36:29;24.00;5.30
30150;DHT22;16962;48.646;9.026;2023-05-02T11:39:19;24.10;7.50
30150;DHT22;16962;48.646;9.026;2023-05-02T11:42:07;23.90;8.70
30150;DHT22;16962;48.646;9.026;2023-05-02T11:44:59;23.80;2.60
30150;DHT22;16962;48.646;9.026;2023-05-02T11:47:48;23.10;1.00
30150;DHT22;16962;48.646;9.026;2023-05-02T11:51:08;22.00;1.00
30150;DHT22;16962;48.646;9.026;2023-05-02T11:53:57;22.10;1.00
30150;DHT22;16962;48.646;9.026;2023-05-02T11:56:52;23.80;1.00
30150;DHT22;16962;48.646;9.026;2023-05-02T11:59:53;25.30;1.00
30150;DHT22;16962;48.646;9.026;2023-05-02T12:02:41;25.50;1.00
30150;DHT22;16962;48.646;9.026;2023-05-02T12:05:29;26.40;1.00
30150;DHT22;16962;48.646;9.026;2023-05-02T12:08:25;27.50;1.00
30150;DHT22;16962;48.646;9.026;2023-05-02T12:11:13;26.60;1.00
30150;DHT22;16962;48.646;9.026;2023-05-02T12:14:04;27.50;1.00
30150;DHT22;16962;48.646;9.026;2023-05-02T12:16:53;26.90;1.00
30150;DHT22;16962;48.646;9.026;2023-05-02T12:19:43;26.20;1.00
30150;DHT22;16962;48.646;9.026;2023-05-02T12:22:31;26.70;1.00
30150;DHT22;16962;48.646;9.026;2023-05-02T12:25:18;26.10;1.00
30150;DHT22;16962;48.646;9.026;2023-05-02T12:28:06;25.60;1.00
30150;DHT22;16962;48.646;9.026;2023-05-02T12:30:56;24.10;1.00
30150;DHT22;16962;48.646;9.026;2023-05-02T12:33:45;23.80;1.00
30150;DHT22;16962;48.646;9.026;2023-05-02T12:36:43;25.20;1.00
30150;DHT22;16962;48.646;9.026;2023-05-02T12:39:37;25.00;1.00
30150;DHT22;16962;48.646;9.026;2023-05-02T12:42:27;23.20;1.00
30150;DHT22;16962;48.646;9.026;2023-05-02T12:45:20;21.40;1.00
30150;DHT22;16962;48.646;9.026;2023-05-02T12:48:24;20.30;1.00
30150;DHT22;16962;48.646;9.026;2023-05-02T12:51:22;19.50;1.00
30150;DHT22;16962;48.646;9.026;2023-05-02T12:54:19;19.00;1.00
30150;DHT22;16962;48.646;9.026;2023-05-02T12:57:09;18.70;1.00
30150;DHT22;16962;48.646;9.026;2023-05-02T12:59:59;18.30;1.00
30150;DHT22;16962;48.646;9.026;2023-05-02T13:02:49;18.70;1.00
30150;DHT22;16962;48.646;9.026;2023-05-02T13:05:36;20.10;1.00
30150;DHT22;16962;48.646;9.026;2023-05-02T13:08:24;21.70;1.00
30150;DHT22;16962;48.646;9.026;2023-05-02T13:11:11;23.40;1.00
30150;DHT22;16962;48.646;9.026;2023-05-02T13:14:00;24.20;1.00
30150;DHT22;16962;48.646;9.026;2023-05-02T13:16:49;24.60;1.00
30150;DHT22;16962;48.646;9.026;2023-05-02T13:19:39;25.20;1.00
30150;DHT22;16962;48.646;9.026;2023-05-02T13:22:40;24.90;1.00
30150;DHT22;16962;48.646;9.026;2023-05-02T13:25:27;25.60;1.00
30150;DHT22;16962;48.646;9.026;2023-05-02T13:28:16;25.80;1.00
30150;DHT22;16962;48.646;9.026;2023-05-02T13:31:04;26.70;1.00
30150;DHT22;16962;48.646;9.026;2023-05-02T13:33:54;26.70;1.00
30150;DHT22;16962;48.646;9.026;2023-05-02T13:36:44;26.40;1.00
30150;DHT22;16962;48.646;9.026;2023-05-02T13:39:32;26.70;1.00
30150;DHT22;16962;48.646;9.026;2023-05-02T13:42:21;26.20;1.00
30150;DHT22;16962;48.646;9.026;2023-05-02T13:45:09;25.20;1.00
30150;DHT22;16962;48.646;9.026;2023-05-02T13:47:57;25.30;1.00
30150;DHT22;16962;48.646;9.026;2023-05-02T13:50:44;25.80;1.00
30150;DHT22;16962;48.646;9.026;2023-05-02T13:53:32;26.20;1.00
30150;DHT22;16962;48.646;9.026;2023-05-02T13:56:19;25.30;1.00
30150;DHT22;16962;48.646;9.026;2023-05-02T13:59:07;24.90;1.00
30150;DHT22;16962;48.646;9.026;2023-05-02T14:01:57;24.70;1.00
30150;DHT22;16962;48.646;9.026;2023-05-02T14:04:47;25.50;1.00
30150;DHT22;16962;48.646;9.026;2023-05-02T14:07:34;26.60;1.00
30150;DHT22;16962;48.646;9.026;2023-05-02T14:10:21;26.40;1.00
30150;DHT22;16962;48.646;9.026;2023-05-02T14:13:12;26.30;1.00
30150;DHT22;16962;48.646;9.026;2023-05-02T14:15:59;26.00;1.00
30150;DHT22;16962;48.646;9.026;2023-05-02T14:18:47;24.60;1.00
30150;DHT22;16962;48.646;9.026;2023-05-02T14:21:38;23.60;1.00
30150;DHT22;16962;48.646;9.026;2023-05-02T14:24:25;22.60;1.00
30150;DHT22;16962;48.646;9.026;2023-05-02T14:27:12;21.70;1.00
30150;DHT22;16962;48.646;9.026;2023-05-02T14:30:07;20.90;1.00
30150;DHT22;16962;48.646;9.026;2023-05-02T14:32:55;20.00;1.00
30150;DHT22;16962;48.646;9.026;2023-05-02T14:35:42;19.20;1.00
30150;DHT22;16962;48.646;9.026;2023-05-02T14:38:30;19.30;1.00
30150;DHT22;16962;48.646;9.026;2023-05-02T14:41:18;20.60;1.00
30150;DHT22;16962;48.646;9.026;2023-05-02T14:44:05;22.00;1.00
30150;DHT22;16962;48.646;9.026;2023-05-02T14:46:53;23.50;1.00
30150;DHT22;16962;48.646;9.026;2023-05-02T14:49:42;24.30;1.00
30150;DHT22;16962;48.646;9.026;2023-05-02T14:52:29;24.50;1.00
30150;DHT22;16962;48.646;9.026;2023-05-02T14:55:17;22.70;1.00
30150;DHT22;16962;48.646;9.026;2023-05-02T14:58:07;21.30;1.00
30150;DHT22;16962;48.646;9.026;2023-05-02T15:00:56;20.40;1.00
30150;DHT22;16962;48.646;9.026;2023-05-02T15:03:44;21.40;1.00
30150;DHT22;16962;48.646;9.026;2023-05-02T15:06:52;22.40;1.00
30150;DHT22;16962;48.646;9.026;2023-05-02T15:09:40;22.00;1.00
30150;DHT22;16962;48.646;9.026;2023-05-02T15:12:28;21.00;1.00
30150;DHT22;16962;48.646;9.026;2023-05-02T15:15:18;21.00;1.00
30150;DHT22;16962;48.646;9.026;2023-05-02T15:18:06;21.80;1.00
30150;DHT22;16962;48.646;9.026;2023-05-02T15:20:53;21.70;1.00
30150;DHT22;16962;48.646;9.026;2023-05-02T15:23:43;22.00;1.00
30150;DHT22;16962;48.646;9.026;2023-05-02T15:26:31;22.60;1.00
30150;DHT22;16962;48.646;9.026;2023-05-02T15:29:19;23.30;1.00
30150;DHT22;16962;48.646;9.026;2023-05-02T15:32:06;23.80;1.00
30150;DHT22;16962;48.646;9.026;2023-05-02T15:34:53;23.80;1.00
30150;DHT22;16962;48.646;9.026;2023-05-02T15:37:43;24.40;1.00
30150;DHT22;16962;48.646;9.026;2023-05-02T15:40:30;24.20;1.00
30150;DHT22;16962;48.646;9.026;2023-05-02T15:43:18;23.60;1.00
30150;DHT22;16962;48.646;9.026;2023-05-02T15:46:07;23.70;1.00
30150;DHT22;16962;48.646;9.026;2023-05-02T15:48:57;23.70;1.00
30150;DHT22;16962;48.646;9.026;2023-05-02T15:51:45;23.30;1.00
30150;DHT22;16962;48.646;9.026;2023-05-02T15:54:32;22.40;1.00
30150;DHT22;16962;48.646;9.026;2023-05-02T15:57:19;22.10;1.00
30150;DHT22;16962;48.646;9.026;2023-05-02T16:00:10;22.10;1.00
30150;DHT22;16962;48.646;9.026;2023-05-02T16:03:02;22.30;1.00
30150;DHT22;16962;48.646;9.026;2023-05-02T16:05:53;22.10;1.00
30150;DHT22;16962;48.646;9.026;2023-05-02T16:08:43;21.20;1.00
30150;DHT22;16962;48.646;9.026;2023-05-02T16:11:33;21.50;1.00
30150;DHT22;16962;48.646;9.026;2023-05-02T16:14:20;21.00;1.00
30150;DHT22;16962;48.646;9.026;2023-05-02T16:17:10;20.60;1.00
30150;DHT22;16962;48.646;9.026;2023-05-02T16:19:57;20.20;1.00
30150;DHT22;16962;48.646;9.026;2023-05-02T16:22:46;20.20;1.00
30150;DHT22;16962;48.646;9.026;2023-05-02T16:25:34;20.10;1.00
30150;DHT22;16962;48.646;9.026;2023-05-02T16:28:24;19.80;1.00
30150;DHT22;16962;48.646;9.026;2023-05-02T16:31:11;19.50;1.00
30150;DHT22;16962;48.646;9.026;2023-05-02T16:34:01;19.50;1.00
30150;DHT22;16962;48.646;9.026;2023-05-02T16:36:51;18.90;1.00
30150;DHT22;16962;48.646;9.026;2023-05-02T16:39:39;18.80;1.00
30150;DHT22;16962;48.646;9.026;2023-05-02T16:42:26;18.30;1.00
30150;DHT22;16962;48.646;9.026;2023-05-02T16:45:18;17.70;1.00
30150;DHT22;16962;48.646;9.026;2023-05-02T16:48:05;17.20;1.00
30150;DHT22;16962;48.646;9.026;2023-05-02T16:50:53;16.80;1.00
30150;DHT22;16962;48.646;9.026;2023-05-02T16:53:40;16.60;1.00
30150;DHT22;16962;48.646;9.026;2023-05-02T16:56:29;16.40;1.00
30150;DHT22;16962;48.646;9.026;2023-05-02T16:59:16;16.30;1.00
30150;DHT22;16962;48.646;9.026;2023-05-02T17:02:06;16.00;1.00
30150;DHT22;16962;48.646;9.026;2023-05-02T17:04:53;15.80;1.00
30150;DHT22;16962;48.646;9.026;2023-05-02T17:07:41;15.70;1.00
30150;DHT22;16962;48.646;9.026;2023-05-02T17:10:29;15.50;1.00
30150;DHT22;16962;48.646;9.026;2023-05-02T17:13:16;15.40;1.00
30150;DHT22;16962;48.646;9.026;2023-05-02T17:16:04;15.20;1.00
30150;DHT22;16962;48.646;9.026;2023-05-02T17:18:54;15.10;1.00
30150;DHT22;16962;48.646;9.026;2023-05-02T17:21:41;15.00;1.00
30150;DHT22;16962;48.646;9.026;2023-05-02T17:24:28;14.80;1.00
30150;DHT22;16962;48.646;9.026;2023-05-02T17:27:16;14.70;1.00
30150;DHT22;16962;48.646;9.026;2023-05-02T17:30:04;14.60;1.00
30150;DHT22;16962;48.646;9.026;2023-05-02T17:32:52;14.50;1.00
30150;DHT22;16962;48.646;9.026;2023-05-02T17:35:39;14.40;1.00
30150;DHT22;16962;48.646;9.026;2023-05-02T17:38:28;14.40;1.00
30150;DHT22;16962;48.646;9.026;2023-05-02T17:41:15;14.30;1.00
30150;DHT22;16962;48.646;9.026;2023-05-02T17:44:05;14.20;1.00
30150;DHT22;16962;48.646;9.026;2023-05-02T17:46:53;14.10;1.00
30150;DHT22;16962;48.646;9.026;2023-05-02T17:49:45;14.00;1.00
30150;DHT22;16962;48.646;9.026;2023-05-02T17:52:35;14.00;1.00
30150;DHT22;16962;48.646;9.026;2023-05-02T17:55:23;14.00;1.00
30150;DHT22;16962;48.646;9.026;2023-05-02T17:58:10;13.80;1.00
30150;DHT22;16962;48.646;9.026;2023-05-02T18:01:09;13.80;1.00
30150;DHT22;16962;48.646;9.026;2023-05-02T18:03:57;13.70;1.00
30150;DHT22;16962;48.646;9.026;2023-05-02T18:06:46;13.60;1.00
30150;DHT22;16962;48.646;9.026;2023-05-02T18:09:34;13.50;1.00
30150;DHT22;16962;48.646;9.026;2023-05-02T18:12:22;13.40;1.00
30150;DHT22;16962;48.646;9.026;2023-05-02T18:15:13;13.40;1.00
30150;DHT22;16962;48.646;9.026;2023-05-02T18:18:00;13.20;1.00
30150;DHT22;16962;48.646;9.026;2023-05-02T18:20:47;13.00;1.00
30150;DHT22;16962;48.646;9.026;2023-05-02T18:23:35;12.90;1.00
30150;DHT22;16962;48.646;9.026;2023-05-02T18:26:23;12.80;1.00
30150;DHT22;16962;48.646;9.026;2023-05-02T18:29:10;12.80;1.00
30150;DHT22;16962;48.646;9.026;2023-05-02T18:31:58;12.80;1.00
30150;DHT22;16962;48.646;9.026;2023-05-02T18:34:45;12.80;1.00